sensor_id;sensor_type;location;lat;lon;timestamp;pressure;altitude;pressure_sealevel;temperature;humidity
18323;BME280;9287;49.456;11.064;2023-03-04T00:01:13;98624.41;;;0.89;100.00
18323;BME280;9287;49.456;11.064;2023-03-04T00:03:41;98625.47;;;0.98;100.00
18323;BME280;9287;49.456;11.064;2023-03-04T00:06:09;98628.19;;;0.93;100.00
18323;BME280;9287;49.456;11.064;2023-03-04T00:08:37;98626.88;;;0.85;100.00
18323;BME280;9287;49.456;11.064;2023-03-04T00:11:06;98625.50;;;0.88;100.00
18323;BME280;9287;49.456;11.064;2023-03-04T00:13:33;98625.53;;;0.83;100.00
18323;BME280;9287;49.456;11.064;2023-03-04T00:16:01;98627.16;;;0.79;100.00
18323;BME280;9287;49.456;11.064;2023-03-04T00:18:28;98637.38;;;0.72;100.00
18323;BME280;9287;49.456;11.064;2023-03-04T00:20:56;98628.22;;;0.73;100.00
18323;BME280;9287;49.456;11.064;2023-03-04T00:23:24;98629.88;;;0.63;100.00
18323;BME280;9287;49.456;11.064;2023-03-04T00:25:52;98633.91;;;0.66;100.00
18323;BME280;9287;49.456;11.064;2023-03-04T00:28:21;98631.50;;;0.64;100.00
18323;BME280;9287;49.456;11.064;2023-03-04T00:30:48;98626.66;;;0.61;100.00
18323;BME280;9287;49.456;11.064;2023-03-04T00:33:16;98632.56;;;0.58;100.00
18323;BME280;9287;49.456;11.064;2023-03-04T00:35:44;98618.59;;;0.56;100.00
18323;BME280;9287;49.456;11.064;2023-03-04T00:38:11;98627.72;;;0.55;100.00
18323;BME280;9287;49.456;11.064;2023-03-04T00:40:39;98626.38;;;0.53;100.00
18323;BME280;9287;49.456;11.064;2023-03-04T00:43:07;98616.47;;;0.48;100.00
18323;BME280;9287;49.456;11.064;2023-03-04T00:45:36;98627.75;;;0.50;100.00
18323;BME280;9287;49.456;11.064;2023-03-04T00:48:04;98628.53;;;0.56;100.00
18323;BME280;9287;49.456;11.064;2023-03-04T00:50:32;98622.66;;;0.49;100.00
18323;BME280;9287;49.456;11.064;2023-03-04T00:52:59;98634.72;;;0.41;100.00
18323;BME280;9287;49.456;11.064;2023-03-04T00:55:27;98626.94;;;0.45;100.00
18323;BME280;9287;49.456;11.064;2023-03-04T00:57:55;98625.59;;;0.37;100.00
18323;BME280;9287;49.456;11.064;2023-03-04T01:00:23;98626.69;;;0.46;100.00
18323;BME280;9287;49.456;11.064;2023-03-04T01:02:52;98628.31;;;0.32;100.00
18323;BME280;9287;49.456;11.064;2023-03-04T01:05:19;98627.75;;;0.35;100.00
18323;BME280;9287;49.456;11.064;2023-03-04T01:07:47;98628.31;;;0.32;100.00
18323;BME280;9287;49.456;11.064;2023-03-04T01:10:15;98625.09;;;0.30;100.00
18323;BME280;9287;49.456;11.064;2023-03-04T01:12:42;98626.69;;;0.31;100.00
18323;BME280;9287;49.456;11.064;2023-03-04T01:15:12;98621.28;;;0.36;100.00
18323;BME280;9287;49.456;11.064;2023-03-04T01:17:40;98617.00;;;0.35;100.00
18323;BME280;9287;49.456;11.064;2023-03-04T01:20:10;98611.66;;;0.25;100.00
18323;BME280;9287;49.456;11.064;2023-03-04T01:22:38;98610.03;;;0.19;100.00
18323;BME280;9287;49.456;11.064;2023-03-04T01:25:07;98612.72;;;0.09;100.00
18323;BME280;9287;49.456;11.064;2023-03-04T01:27:35;98610.03;;;0.09;100.00
18323;BME280;9287;49.456;11.064;2023-03-04T01:30:03;98612.19;;;0.02;100.00
18323;BME280;9287;49.456;11.064;2023-03-04T01:32:31;98604.41;;;0.00;100.00
18323;BME280;9287;49.456;11.064;2023-03-04T01:34:59;98612.75;;;-0.02;100.00
18323;BME280;9287;49.456;11.064;2023-03-04T01:37:28;98607.34;;;-0.12;100.00
18323;BME280;9287;49.456;11.064;2023-03-04T01:39:56;98607.09;;;-0.05;100.00
18323;BME280;9287;49.456;11.064;2023-03-04T01:42:25;98610.03;;;-0.12;100.00
18323;BME280;9287;49.456;11.064;2023-03-04T01:44:54;98602.53;;;-0.05;100.00
18323;BME280;9287;49.456;11.064;2023-03-04T01:47:23;98604.16;;;-0.04;100.00
18323;BME280;9287;49.456;11.064;2023-03-04T01:49:56;98605.75;;;0.08;100.00
18323;BME280;9287;49.456;11.064;2023-03-04T01:52:26;98598.25;;;-0.01;100.00
18323;BME280;9287;49.456;11.064;2023-03-04T01:54:56;98597.69;;;-0.03;100.00
18323;BME280;9287;49.456;11.064;2023-03-04T01:57:25;98599.81;;;0.00;100.00
18323;BME280;9287;49.456;11.064;2023-03-04T02:00:19;98606.25;;;-0.16;100.00
18323;BME280;9287;49.456;11.064;2023-03-04T02:02:49;98599.31;;;-0.07;100.00
18323;BME280;9287;49.456;11.064;2023-03-04T02:05:17;98596.63;;;-0.12;100.00
18323;BME280;9287;49.456;11.064;2023-03-04T02:07:45;98589.91;;;-0.19;100.00
18323;BME280;9287;49.456;11.064;2023-03-04T02:10:15;98584.53;;;-0.19;100.00
18323;BME280;9287;49.456;11.064;2023-03-04T02:12:43;98584.25;;;-0.23;100.00
18323;BME280;9287;49.456;11.064;2023-03-04T02:15:11;98593.38;;;-0.34;100.00
18323;BME280;9287;49.456;11.064;2023-03-04T02:17:39;98588.56;;;-0.27;100.00
18323;BME280;9287;49.456;11.064;2023-03-04T02:20:16;98578.63;;;-0.37;100.00
18323;BME280;9287;49.456;11.064;2023-03-04T02:22:53;98586.41;;;-0.35;100.00
18323;BME280;9287;49.456;11.064;2023-03-04T02:25:28;98586.41;;;-0.40;100.00
18323;BME280;9287;49.456;11.064;2023-03-04T02:27:59;98580.47;;;-0.42;100.00
18323;BME280;9287;49.456;11.064;2023-03-04T02:30:26;98575.13;;;-0.42;100.00
18323;BME280;9287;49.456;11.064;2023-03-04T02:32:54;98574.03;;;-0.46;100.00
18323;BME280;9287;49.456;11.064;2023-03-04T02:35:22;98572.16;;;-0.46;100.00
18323;BME280;9287;49.456;11.064;2023-03-04T02:37:50;98581.00;;;-0.60;100.00
18323;BME280;9287;49.456;11.064;2023-03-04T02:40:22;98578.31;;;-0.55;100.00
18323;BME280;9287;49.456;11.064;2023-03-04T02:42:51;98579.38;;;-0.61;100.00
18323;BME280;9287;49.456;11.064;2023-03-04T02:45:38;98567.56;;;-0.60;100.00
18323;BME280;9287;49.456;11.064;2023-03-04T02:48:07;98563.31;;;-0.56;100.00
18323;BME280;9287;49.456;11.064;2023-03-04T02:50:39;98560.59;;;-0.51;100.00
18323;BME280;9287;49.456;11.064;2023-03-04T02:53:08;98555.22;;;-0.72;100.00
18323;BME280;9287;49.456;11.064;2023-03-04T02:55:35;98563.81;;;-0.59;100.00
18323;BME280;9287;49.456;11.064;2023-03-04T02:58:03;98562.47;;;-0.67;100.00
18323;BME280;9287;49.456;11.064;2023-03-04T03:00:31;98551.72;;;-0.67;100.00
18323;BME280;9287;49.456;11.064;2023-03-04T03:03:00;98558.97;;;-0.73;100.00
18323;BME280;9287;49.456;11.064;2023-03-04T03:05:30;98553.09;;;-0.69;100.00
18323;BME280;9287;49.456;11.064;2023-03-04T03:07:58;98549.88;;;-0.72;100.00
18323;BME280;9287;49.456;11.064;2023-03-04T03:10:26;98558.97;;;-0.73;100.00
18323;BME280;9287;49.456;11.064;2023-03-04T03:12:55;98559.22;;;-0.79;100.00
18323;BME280;9287;49.456;11.064;2023-03-04T03:15:23;98551.97;;;-0.84;100.00
18323;BME280;9287;49.456;11.064;2023-03-04T03:17:51;98548.19;;;-0.93;100.00
18323;BME280;9287;49.456;11.064;2023-03-04T03:20:20;98556.72;;;-1.01;100.00
18323;BME280;9287;49.456;11.064;2023-03-04T03:22:47;98563.69;;;-1.10;100.00
18323;BME280;9287;49.456;11.064;2023-03-04T03:25:15;98570.09;;;-1.16;100.00
18323;BME280;9287;49.456;11.064;2023-03-04T03:27:43;98562.81;;;-1.21;100.00
18323;BME280;9287;49.456;11.064;2023-03-04T03:30:12;98573.28;;;-1.24;100.00
18323;BME280;9287;49.456;11.064;2023-03-04T03:32:41;98560.97;;;-1.15;100.00
18323;BME280;9287;49.456;11.064;2023-03-04T03:35:08;98569.53;;;-1.23;100.00
18323;BME280;9287;49.456;11.064;2023-03-04T03:37:38;98562.50;;;-1.34;100.00
18323;BME280;9287;49.456;11.064;2023-03-04T03:40:06;98568.91;;;-1.41;100.00
18323;BME280;9287;49.456;11.064;2023-03-04T03:42:34;98564.63;;;-1.36;100.00
18323;BME280;9287;49.456;11.064;2023-03-04T03:45:02;98566.22;;;-1.46;100.00
18323;BME280;9287;49.456;11.064;2023-03-04T03:47:30;98566.75;;;-1.38;100.00
18323;BME280;9287;49.456;11.064;2023-03-04T03:49:58;98564.63;;;-1.36;100.00
18323;BME280;9287;49.456;11.064;2023-03-04T03:52:25;98570.50;;;-1.45;100.00
18323;BME280;9287;49.456;11.064;2023-03-04T03:54:54;98576.44;;;-1.32;100.00
18323;BME280;9287;49.456;11.064;2023-03-04T03:57:22;98576.41;;;-1.43;100.00
18323;BME280;9287;49.456;11.064;2023-03-04T03:59:50;98568.91;;;-1.41;100.00
18323;BME280;9287;49.456;11.064;2023-03-04T04:02:17;98576.41;;;-1.43;100.00
18323;BME280;9287;49.456;11.064;2023-03-04T04:04:45;98574.78;;;-1.44;100.00
18323;BME280;9287;49.456;11.064;2023-03-04T04:07:13;98572.41;;;-1.40;100.00
18323;BME280;9287;49.456;11.064;2023-03-04T04:09:41;98577.47;;;-1.38;100.00
18323;BME280;9287;49.456;11.064;2023-03-04T04:12:10;98587.44;;;-1.29;100.00
18323;BME280;9287;49.456;11.064;2023-03-04T04:14:40;98580.63;;;-1.57;100.00
18323;BME280;9287;49.456;11.064;2023-03-04T04:17:07;98589.75;;;-1.48;100.00
18323;BME280;9287;49.456;11.064;2023-03-04T04:19:35;98589.53;;;-1.41;100.00
18323;BME280;9287;49.456;11.064;2023-03-04T04:22:03;98590.91;;;-1.33;100.00
18323;BME280;9287;49.456;11.064;2023-03-04T04:24:31;98590.91;;;-1.33;100.00
18323;BME280;9287;49.456;11.064;2023-03-04T04:26:59;98598.94;;;-1.33;100.00
18323;BME280;9287;49.456;11.064;2023-03-04T04:29:28;98594.13;;;-1.31;100.00
18323;BME280;9287;49.456;11.064;2023-03-04T04:31:56;98595.78;;;-1.20;100.00
18323;BME280;9287;49.456;11.064;2023-03-04T04:34:24;98597.41;;;-1.19;100.00
18323;BME280;9287;49.456;11.064;2023-03-04T04:36:51;98596.88;;;-1.16;100.00
18323;BME280;9287;49.456;11.064;2023-03-04T04:39:19;98599.00;;;-1.18;100.00
18323;BME280;9287;49.456;11.064;2023-03-04T04:41:47;98601.16;;;-1.25;100.00
18323;BME280;9287;49.456;11.064;2023-03-04T04:44:15;98601.69;;;-1.23;100.00
18323;BME280;9287;49.456;11.064;2023-03-04T04:46:44;98603.34;;;-1.12;100.00
18323;BME280;9287;49.456;11.064;2023-03-04T04:49:12;98602.81;;;-1.09;100.00
18323;BME280;9287;49.456;11.064;2023-03-04T04:51:39;98607.38;;;-1.10;100.00
18323;BME280;9287;49.456;11.064;2023-03-04T04:54:12;98601.22;;;-1.10;100.00
18323;BME280;9287;49.456;11.064;2023-03-04T04:56:40;98601.03;;;-0.88;100.00
18323;BME280;9287;49.456;11.064;2023-03-04T04:59:08;98600.72;;;-0.97;100.00
18323;BME280;9287;49.456;11.064;2023-03-04T05:01:35;98599.59;;;-1.11;100.00
18323;BME280;9287;49.456;11.064;2023-03-04T05:04:05;98598.78;;;-1.12;100.00
18323;BME280;9287;49.456;11.064;2023-03-04T05:06:32;98605.69;;;-1.21;100.00
18323;BME280;9287;49.456;11.064;2023-03-04T05:09:00;98604.41;;;-1.13;100.00
18323;BME280;9287;49.456;11.064;2023-03-04T05:11:28;98611.94;;;-1.10;100.00
18323;BME280;9287;49.456;11.064;2023-03-04T05:13:56;98604.97;;;-1.01;100.00
18323;BME280;9287;49.456;11.064;2023-03-04T05:16:24;98603.34;;;-1.12;100.00
18323;BME280;9287;49.456;11.064;2023-03-04T05:18:51;98597.97;;;-1.12;100.00
18323;BME280;9287;49.456;11.064;2023-03-04T05:21:20;98599.06;;;-1.08;100.00
18323;BME280;9287;49.456;11.064;2023-03-04T05:23:48;98610.59;;;-1.08;100.00
18323;BME280;9287;49.456;11.064;2023-03-04T05:26:17;98611.16;;;-1.06;100.00
18323;BME280;9287;49.456;11.064;2023-03-04T05:28:45;98616.28;;;-0.94;100.00
18323;BME280;9287;49.456;11.064;2023-03-04T05:31:12;98607.13;;;-1.03;100.00
18323;BME280;9287;49.456;11.064;2023-03-04T05:33:40;98609.59;;;-0.91;100.00
18323;BME280;9287;49.456;11.064;2023-03-04T05:36:08;98616.06;;;-0.82;100.00
18323;BME280;9287;49.456;11.064;2023-03-04T05:38:38;98609.91;;;-0.78;100.00
18323;BME280;9287;49.456;11.064;2023-03-04T05:41:06;98602.94;;;-0.79;100.00
18323;BME280;9287;49.456;11.064;2023-03-04T05:43:35;98611.22;;;-0.85;100.00
18323;BME280;9287;49.456;11.064;2023-03-04T05:46:08;98611.50;;;-0.87;100.00
18323;BME280;9287;49.456;11.064;2023-03-04T05:48:39;98612.00;;;-0.95;100.00
18323;BME280;9287;49.456;11.064;2023-03-04T05:51:07;98614.16;;;-0.92;100.00
18323;BME280;9287;49.456;11.064;2023-03-04T05:53:36;98609.88;;;-0.88;100.00
18323;BME280;9287;49.456;11.064;2023-03-04T05:56:10;98614.16;;;-0.92;100.00
18323;BME280;9287;49.456;11.064;2023-03-04T05:58:38;98619.72;;;-1.09;100.00
18323;BME280;9287;49.456;11.064;2023-03-04T06:01:06;98612.50;;;-0.98;100.00
18323;BME280;9287;49.456;11.064;2023-03-04T06:03:34;98616.56;;;-0.90;100.00
18323;BME280;9287;49.456;11.064;2023-03-04T06:06:02;98622.13;;;-1.07;100.00
18323;BME280;9287;49.456;11.064;2023-03-04T06:08:30;98621.63;;;-1.04;100.00
18323;BME280;9287;49.456;11.064;2023-03-04T06:10:58;98620.56;;;-0.98;100.00
18323;BME280;9287;49.456;11.064;2023-03-04T06:13:27;98617.31;;;-1.00;100.00
18323;BME280;9287;49.456;11.064;2023-03-04T06:15:56;98623.19;;;-1.03;100.00
18323;BME280;9287;49.456;11.064;2023-03-04T06:18:25;98629.94;;;-0.95;100.00
18323;BME280;9287;49.456;11.064;2023-03-04T06:20:55;98624.06;;;-0.92;100.00
18323;BME280;9287;49.456;11.064;2023-03-04T06:23:23;98622.72;;;-0.95;100.00
18323;BME280;9287;49.456;11.064;2023-03-04T06:25:52;98627.53;;;-0.97;100.00
18323;BME280;9287;49.456;11.064;2023-03-04T06:28:20;98627.53;;;-0.97;100.00
18323;BME280;9287;49.456;11.064;2023-03-04T06:30:50;98636.66;;;-0.93;100.00
18323;BME280;9287;49.456;11.064;2023-03-04T06:33:18;98642.28;;;-0.94;100.00
18323;BME280;9287;49.456;11.064;2023-03-04T06:35:46;98640.63;;;-1.06;100.00
18323;BME280;9287;49.456;11.064;2023-03-04T06:38:14;98638.25;;;-0.97;100.00
18323;BME280;9287;49.456;11.064;2023-03-04T06:40:41;98645.22;;;-0.96;100.00
18323;BME280;9287;49.456;11.064;2023-03-04T06:43:11;98640.97;;;-0.92;100.00
18323;BME280;9287;49.456;11.064;2023-03-04T06:45:38;98643.13;;;-0.84;100.00
18323;BME280;9287;49.456;11.064;2023-03-04T06:48:08;98640.47;;;-0.79;100.00
18323;BME280;9287;49.456;11.064;2023-03-04T06:50:38;98640.47;;;-0.79;100.00
18323;BME280;9287;49.456;11.064;2023-03-04T06:53:06;98643.19;;;-0.74;100.00
18323;BME280;9287;49.456;11.064;2023-03-04T06:55:34;98649.13;;;-0.56;100.00
18323;BME280;9287;49.456;11.064;2023-03-04T06:58:02;98650.22;;;-0.52;100.00
18323;BME280;9287;49.456;11.064;2023-03-04T07:00:30;98660.41;;;-0.49;100.00
18323;BME280;9287;49.456;11.064;2023-03-04T07:02:58;98652.91;;;-0.47;100.00
18323;BME280;9287;49.456;11.064;2023-03-04T07:05:27;98657.75;;;-0.34;100.00
18323;BME280;9287;49.456;11.064;2023-03-04T07:07:55;98656.72;;;-0.28;100.00
18323;BME280;9287;49.456;11.064;2023-03-04T07:10:23;98668.81;;;-0.20;100.00
18323;BME280;9287;49.456;11.064;2023-03-04T07:12:50;98669.63;;;-0.20;100.00
18323;BME280;9287;49.456;11.064;2023-03-04T07:15:18;98666.94;;;-0.20;100.00
18323;BME280;9287;49.456;11.064;2023-03-04T07:17:45;98668.56;;;-0.19;100.00
18323;BME280;9287;49.456;11.064;2023-03-04T07:20:13;98672.03;;;-0.13;100.00
18323;BME280;9287;49.456;11.064;2023-03-04T07:22:42;98673.91;;;-0.14;100.00
18323;BME280;9287;49.456;11.064;2023-03-04T07:25:10;98676.34;;;-0.12;100.00
18323;BME280;9287;49.456;11.064;2023-03-04T07:27:38;98669.09;;;-0.07;100.00
18323;BME280;9287;49.456;11.064;2023-03-04T07:30:08;98670.72;;;-0.06;100.00
18323;BME280;9287;49.456;11.064;2023-03-04T07:32:36;98680.13;;;-0.03;100.00
18323;BME280;9287;49.456;11.064;2023-03-04T07:35:05;98682.00;;;0.02;100.00
18323;BME280;9287;49.456;11.064;2023-03-04T07:37:33;98673.94;;;0.07;100.00
18323;BME280;9287;49.456;11.064;2023-03-04T07:40:02;98682.56;;;0.14;100.00
18323;BME280;9287;49.456;11.064;2023-03-04T07:42:30;98678.78;;;-0.01;100.00
18323;BME280;9287;49.456;11.064;2023-03-04T07:44:58;98673.94;;;0.07;100.00
18323;BME280;9287;49.456;11.064;2023-03-04T07:47:27;98678.25;;;0.13;100.00
18323;BME280;9287;49.456;11.064;2023-03-04T07:49:54;98678.28;;;0.33;100.00
18323;BME280;9287;49.456;11.064;2023-03-04T07:52:22;98673.97;;;0.37;100.00
18323;BME280;9287;49.456;11.064;2023-03-04T07:54:50;98680.94;;;0.38;100.00
18323;BME280;9287;49.456;11.064;2023-03-04T07:57:19;98679.34;;;0.47;100.00
18323;BME280;9287;49.456;11.064;2023-03-04T07:59:47;98681.47;;;0.55;100.00
18323;BME280;9287;49.456;11.064;2023-03-04T08:02:15;98683.63;;;0.53;100.00
18323;BME280;9287;49.456;11.064;2023-03-04T08:04:42;98679.84;;;0.54;100.00
18323;BME280;9287;49.456;11.064;2023-03-04T08:07:10;98680.94;;;0.58;100.00
18323;BME280;9287;49.456;11.064;2023-03-04T08:09:38;98681.47;;;0.55;100.00
18323;BME280;9287;49.456;11.064;2023-03-04T08:12:06;98675.03;;;0.61;100.00
18323;BME280;9287;49.456;11.064;2023-03-04T08:14:35;98673.41;;;0.65;100.00
18323;BME280;9287;49.456;11.064;2023-03-04T08:17:02;98682.53;;;0.69;100.00
18323;BME280;9287;49.456;11.064;2023-03-04T08:19:30;98685.22;;;0.85;100.00
18323;BME280;9287;49.456;11.064;2023-03-04T08:21:58;98671.25;;;0.73;100.00
18323;BME280;9287;49.456;11.064;2023-03-04T08:24:26;98675.28;;;0.75;100.00
18323;BME280;9287;49.456;11.064;2023-03-04T08:26:55;98680.91;;;0.79;100.00
18323;BME280;9287;49.456;11.064;2023-03-04T08:29:24;98679.84;;;0.85;100.00
18323;BME280;9287;49.456;11.064;2023-03-04T08:31:54;98676.34;;;0.84;100.00
18323;BME280;9287;49.456;11.064;2023-03-04T08:34:24;98679.81;;;0.95;100.00
18323;BME280;9287;49.456;11.064;2023-03-04T08:36:52;98672.28;;;0.97;100.00
18323;BME280;9287;49.456;11.064;2023-03-04T08:39:20;98672.81;;;0.89;100.00
18323;BME280;9287;49.456;11.064;2023-03-04T08:41:48;98674.97;;;0.97;100.00
18323;BME280;9287;49.456;11.064;2023-03-04T08:44:16;98677.66;;;0.97;100.00
18323;BME280;9287;49.456;11.064;2023-03-04T08:46:44;98675.50;;;0.99;100.00
18323;BME280;9287;49.456;11.064;2023-03-04T08:49:13;98670.38;;;1.02;100.00
18323;BME280;9287;49.456;11.064;2023-03-04T08:51:41;98670.88;;;1.10;100.00
18323;BME280;9287;49.456;11.064;2023-03-04T08:54:10;98681.38;;;1.16;100.00
18323;BME280;9287;49.456;11.064;2023-03-04T08:56:39;98675.94;;;1.21;100.00
18323;BME280;9287;49.456;11.064;2023-03-04T08:59:07;98680.03;;;1.19;100.00
18323;BME280;9287;49.456;11.064;2023-03-04T09:01:34;98676.53;;;1.13;100.00
18323;BME280;9287;49.456;11.064;2023-03-04T09:04:02;98680.84;;;1.09;100.00
18323;BME280;9287;49.456;11.064;2023-03-04T09:06:31;98685.69;;;1.12;100.00
18323;BME280;9287;49.456;11.064;2023-03-04T09:08:59;98683.00;;;1.12;100.00
18323;BME280;9287;49.456;11.064;2023-03-04T09:11:27;98678.63;;;1.21;100.00
18323;BME280;9287;49.456;11.064;2023-03-04T09:13:55;98681.31;;;1.21;100.00
18323;BME280;9287;49.456;11.064;2023-03-04T09:16:23;98682.94;;;1.27;100.00
18323;BME280;9287;49.456;11.064;2023-03-04T09:18:51;98690.47;;;1.25;100.00
18323;BME280;9287;49.456;11.064;2023-03-04T09:21:19;98682.91;;;1.32;100.00
18323;BME280;9287;49.456;11.064;2023-03-04T09:23:48;98689.38;;;1.31;100.00
18323;BME280;9287;49.456;11.064;2023-03-04T09:26:19;98688.84;;;1.34;100.00
18323;BME280;9287;49.456;11.064;2023-03-04T09:28:49;98689.31;;;1.47;100.00
18323;BME280;9287;49.456;11.064;2023-03-04T09:31:18;98690.41;;;1.46;100.00
18323;BME280;9287;49.456;11.064;2023-03-04T09:33:47;98687.69;;;1.56;100.00
18323;BME280;9287;49.456;11.064;2023-03-04T09:36:15;98687.91;;;1.59;100.00
18323;BME280;9287;49.456;11.064;2023-03-04T09:38:43;98683.31;;;1.65;100.00
18323;BME280;9287;49.456;11.064;2023-03-04T09:41:16;98693.28;;;1.64;100.00
18323;BME280;9287;49.456;11.064;2023-03-04T09:43:45;98683.81;;;1.72;100.00
18323;BME280;9287;49.456;11.064;2023-03-04T09:46:17;98688.97;;;1.68;100.00
18323;BME280;9287;49.456;11.064;2023-03-04T09:48:48;98688.63;;;1.75;100.00
18323;BME280;9287;49.456;11.064;2023-03-04T09:51:21;98685.19;;;1.69;100.00
18323;BME280;9287;49.456;11.064;2023-03-04T09:54:05;98692.97;;;1.71;100.00
18323;BME280;9287;49.456;11.064;2023-03-04T09:56:36;98683.75;;;1.82;100.00
18323;BME280;9287;49.456;11.064;2023-03-04T09:59:14;98686.47;;;1.77;100.00
18323;BME280;9287;49.456;11.064;2023-03-04T10:01:47;98685.88;;;1.90;100.00
18323;BME280;9287;49.456;11.064;2023-03-04T10:04:28;98672.91;;;1.92;100.00
18323;BME280;9287;49.456;11.064;2023-03-04T10:06:58;98685.88;;;1.90;100.00
18323;BME280;9287;49.456;11.064;2023-03-04T10:09:29;98684.19;;;1.99;100.00
18323;BME280;9287;49.456;11.064;2023-03-04T10:12:03;98679.63;;;2.00;100.00
18323;BME280;9287;49.456;11.064;2023-03-04T10:14:34;98679.31;;;2.06;100.00
18323;BME280;9287;49.456;11.064;2023-03-04T10:17:07;98676.63;;;2.01;100.00
18323;BME280;9287;49.456;11.064;2023-03-04T10:19:53;98673.97;;;1.96;100.00
18323;BME280;9287;49.456;11.064;2023-03-04T10:22:29;98671.72;;;2.08;100.00
18323;BME280;9287;49.456;11.064;2023-03-04T10:25:09;98674.41;;;2.08;100.00
18323;BME280;9287;49.456;11.064;2023-03-04T10:27:46;98665.72;;;2.22;100.00
18323;BME280;9287;49.456;11.064;2023-03-04T10:30:20;98666.19;;;2.29;100.00
18323;BME280;9287;49.456;11.064;2023-03-04T10:32:49;98660.75;;;2.39;100.00
18323;BME280;9287;49.456;11.064;2023-03-04T10:35:19;98661.75;;;2.43;100.00
18323;BME280;9287;49.456;11.064;2023-03-04T10:37:49;98663.38;;;2.44;100.00
18323;BME280;9287;49.456;11.064;2023-03-04T10:40:21;98662.25;;;2.50;100.00
18323;BME280;9287;49.456;11.064;2023-03-04T10:42:51;98675.84;;;2.35;100.00
18323;BME280;9287;49.456;11.064;2023-03-04T10:45:22;98675.28;;;2.38;100.00
18323;BME280;9287;49.456;11.064;2023-03-04T10:47:51;98665.50;;;2.47;100.00
18323;BME280;9287;49.456;11.064;2023-03-04T10:50:23;98665.47;;;2.52;100.00
18323;BME280;9287;49.456;11.064;2023-03-04T10:52:53;98664.09;;;2.55;100.00
18323;BME280;9287;49.456;11.064;2023-03-04T10:55:23;98654.03;;;2.65;100.00
18323;BME280;9287;49.456;11.064;2023-03-04T10:57:55;98658.78;;;2.44;100.00
18323;BME280;9287;49.456;11.064;2023-03-04T11:00:28;98660.63;;;2.49;100.00
18323;BME280;9287;49.456;11.064;2023-03-04T11:03:22;98664.34;;;2.58;100.00
18323;BME280;9287;49.456;11.064;2023-03-04T11:06:04;98658.31;;;2.66;99.36
18323;BME280;9287;49.456;11.064;2023-03-04T11:08:32;98657.00;;;2.64;100.00
18323;BME280;9287;49.456;11.064;2023-03-04T11:11:00;98655.63;;;2.66;99.10
18323;BME280;9287;49.456;11.064;2023-03-04T11:13:30;98659.41;;;2.65;99.09
18323;BME280;9287;49.456;11.064;2023-03-04T11:16:00;98660.47;;;2.69;99.07
18323;BME280;9287;49.456;11.064;2023-03-04T11:18:35;98656.28;;;2.53;98.47
18323;BME280;9287;49.456;11.064;2023-03-04T11:21:07;98659.09;;;2.72;98.19
18323;BME280;9287;49.456;11.064;2023-03-04T11:23:44;98646.00;;;2.84;97.55
18323;BME280;9287;49.456;11.064;2023-03-04T11:26:16;98643.28;;;2.89;97.75
18323;BME280;9287;49.456;11.064;2023-03-04T11:28:52;98647.38;;;2.82;96.11
18323;BME280;9287;49.456;11.064;2023-03-04T11:31:25;98648.75;;;2.79;97.51
18323;BME280;9287;49.456;11.064;2023-03-04T11:33:57;98644.75;;;2.76;95.60
18323;BME280;9287;49.456;11.064;2023-03-04T11:36:33;98646.69;;;2.71;96.60
18323;BME280;9287;49.456;11.064;2023-03-04T11:39:04;98636.50;;;2.63;95.43
18323;BME280;9287;49.456;11.064;2023-03-04T11:41:51;98638.84;;;2.74;95.41
18323;BME280;9287;49.456;11.064;2023-03-04T11:44:22;98634.41;;;2.84;96.52
18323;BME280;9287;49.456;11.064;2023-03-04T11:47:02;98642.34;;;2.99;95.24
18323;BME280;9287;49.456;11.064;2023-03-04T11:49:56;98635.47;;;2.88;92.85
18323;BME280;9287;49.456;11.064;2023-03-04T11:52:38;98635.00;;;2.80;93.08
18323;BME280;9287;49.456;11.064;2023-03-04T11:55:21;98625.94;;;2.71;93.33
18323;BME280;9287;49.456;11.064;2023-03-04T11:57:57;98622.16;;;2.72;94.33
18323;BME280;9287;49.456;11.064;2023-03-04T12:00:35;98618.78;;;2.57;94.54
18323;BME280;9287;49.456;11.064;2023-03-04T12:03:20;98614.09;;;2.67;94.42
18323;BME280;9287;49.456;11.064;2023-03-04T12:05:57;98608.38;;;2.74;94.88
18323;BME280;9287;49.456;11.064;2023-03-04T12:08:35;98612.41;;;2.76;93.92
18323;BME280;9287;49.456;11.064;2023-03-04T12:11:09;98604.91;;;2.68;95.23
18323;BME280;9287;49.456;11.064;2023-03-04T12:14:01;98595.06;;;2.83;95.82
18323;BME280;9287;49.456;11.064;2023-03-04T12:16:47;98594.38;;;2.72;94.24
18323;BME280;9287;49.456;11.064;2023-03-04T12:19:27;98593.59;;;2.66;96.61
18323;BME280;9287;49.456;11.064;2023-03-04T12:22:16;98593.91;;;2.65;96.15
18323;BME280;9287;49.456;11.064;2023-03-04T12:25:06;98588.22;;;2.66;96.22
18323;BME280;9287;49.456;11.064;2023-03-04T12:27:44;98581.25;;;2.60;96.28
18323;BME280;9287;49.456;11.064;2023-03-04T12:30:23;98581.16;;;2.70;95.74
18323;BME280;9287;49.456;11.064;2023-03-04T12:33:02;98584.25;;;2.83;94.93
18323;BME280;9287;49.456;11.064;2023-03-04T12:35:37;98578.47;;;2.94;93.83
18323;BME280;9287;49.456;11.064;2023-03-04T12:38:34;98585.63;;;3.04;93.44
18323;BME280;9287;49.456;11.064;2023-03-04T12:41:19;98581.28;;;3.08;93.16
18323;BME280;9287;49.456;11.064;2023-03-04T12:43:52;98575.31;;;2.87;93.49
18323;BME280;9287;49.456;11.064;2023-03-04T12:46:41;98578.16;;;2.96;94.29
18323;BME280;9287;49.456;11.064;2023-03-04T12:49:25;98577.38;;;2.95;93.63
18323;BME280;9287;49.456;11.064;2023-03-04T12:52:02;98565.19;;;2.98;92.79
18323;BME280;9287;49.456;11.064;2023-03-04T12:54:36;98573.94;;;2.90;94.69
18323;BME280;9287;49.456;11.064;2023-03-04T12:57:09;98575.31;;;2.87;94.86
18323;BME280;9287;49.456;11.064;2023-03-04T12:59:43;98572.38;;;2.84;95.90
18323;BME280;9287;49.456;11.064;2023-03-04T13:02:29;98574.84;;;2.80;96.53
18323;BME280;9287;49.456;11.064;2023-03-04T13:05:14;98572.84;;;2.91;97.44
18323;BME280;9287;49.456;11.064;2023-03-04T13:07:51;98564.06;;;3.04;96.44
18323;BME280;9287;49.456;11.064;2023-03-04T13:10:23;98564.19;;;2.94;94.18
18323;BME280;9287;49.456;11.064;2023-03-04T13:12:52;98565.84;;;2.90;95.61
18323;BME280;9287;49.456;11.064;2023-03-04T13:15:32;98552.47;;;3.03;93.61